sensor_id;sensor_type;location;lat;lon;timestamp;temperature;humidity
6443;DHT22;3254;47.372;8.512;2023-05-06T00:00:35;14.00;67.90
6443;DHT22;3254;47.372;8.512;2023-05-06T00:03:00;14.10;66.60
6443;DHT22;3254;47.372;8.512;2023-05-06T00:05:26;14.10;62.70
6443;DHT22;3254;47.372;8.512;2023-05-06T00:07:52;14.10;58.10
6443;DHT22;3254;47.372;8.512;2023-05-06T00:10:17;14.10;56.90
6443;DHT22;3254;47.372;8.512;2023-05-06T00:12:43;14.10;55.10
6443;DHT22;3254;47.372;8.512;2023-05-06T00:15:09;14.10;53.80
6443;DHT22;3254;47.372;8.512;2023-05-06T00:17:35;14.10;53.30
6443;DHT22;3254;47.372;8.512;2023-05-06T00:20:01;14.20;53.70
6443;DHT22;3254;47.372;8.512;2023-05-06T00:22:26;14.20;52.90
6443;DHT22;3254;47.372;8.512;2023-05-06T00:24:52;14.20;51.20
6443;DHT22;3254;47.372;8.512;2023-05-06T00:27:18;14.10;52.20
6443;DHT22;3254;47.372;8.512;2023-05-06T00:29:43;14.10;54.00
6443;DHT22;3254;47.372;8.512;2023-05-06T00:32:09;14.00;55.10
6443;DHT22;3254;47.372;8.512;2023-05-06T00:34:35;13.90;55.00
6443;DHT22;3254;47.372;8.512;2023-05-06T00:37:01;13.90;54.60
6443;DHT22;3254;47.372;8.512;2023-05-06T00:39:26;13.80;55.40
6443;DHT22;3254;47.372;8.512;2023-05-06T00:41:52;13.70;57.40
6443;DHT22;3254;47.372;8.512;2023-05-06T00:44:17;13.70;59.90
6443;DHT22;3254;47.372;8.512;2023-05-06T00:46:43;13.70;62.20
6443;DHT22;3254;47.372;8.512;2023-05-06T00:49:09;13.70;65.00
6443;DHT22;3254;47.372;8.512;2023-05-06T00:51:35;13.80;61.80
6443;DHT22;3254;47.372;8.512;2023-05-06T00:54:01;13.80;59.30
6443;DHT22;3254;47.372;8.512;2023-05-06T00:56:27;13.80;58.60
6443;DHT22;3254;47.372;8.512;2023-05-06T00:58:53;13.90;57.50
6443;DHT22;3254;47.372;8.512;2023-05-06T01:01:20;13.90;55.40
6443;DHT22;3254;47.372;8.512;2023-05-06T01:03:47;13.90;54.40
6443;DHT22;3254;47.372;8.512;2023-05-06T01:06:28;14.00;52.90
6443;DHT22;3254;47.372;8.512;2023-05-06T01:09:22;14.00;51.50
6443;DHT22;3254;47.372;8.512;2023-05-06T01:12:03;14.00;49.30
6443;DHT22;3254;47.372;8.512;2023-05-06T01:14:55;14.00;48.60
6443;DHT22;3254;47.372;8.512;2023-05-06T01:17:26;14.10;46.40
6443;DHT22;3254;47.372;8.512;2023-05-06T01:19:56;14.10;44.60
6443;DHT22;3254;47.372;8.512;2023-05-06T01:22:23;14.10;43.60
6443;DHT22;3254;47.372;8.512;2023-05-06T01:24:51;14.10;42.50
6443;DHT22;3254;47.372;8.512;2023-05-06T01:27:16;14.10;41.90
6443;DHT22;3254;47.372;8.512;2023-05-06T01:29:43;14.00;40.30
6443;DHT22;3254;47.372;8.512;2023-05-06T01:35:21;14.00;37.30
6443;DHT22;3254;47.372;8.512;2023-05-06T01:38:00;13.90;37.10
6443;DHT22;3254;47.372;8.512;2023-05-06T01:40:27;13.80;38.60
6443;DHT22;3254;47.372;8.512;2023-05-06T01:42:54;13.80;39.60
6443;DHT22;3254;47.372;8.512;2023-05-06T01:45:21;13.80;38.80
6443;DHT22;3254;47.372;8.512;2023-05-06T01:47:49;13.80;37.70
6443;DHT22;3254;47.372;8.512;2023-05-06T01:50:15;13.70;38.80
6443;DHT22;3254;47.372;8.512;2023-05-06T01:52:41;13.70;41.00
6443;DHT22;3254;47.372;8.512;2023-05-06T01:55:06;13.70;43.50
6443;DHT22;3254;47.372;8.512;2023-05-06T01:57:32;13.70;43.00
6443;DHT22;3254;47.372;8.512;2023-05-06T01:59:58;13.70;43.10
6443;DHT22;3254;47.372;8.512;2023-05-06T02:02:23;13.70;43.70
6443;DHT22;3254;47.372;8.512;2023-05-06T02:04:51;13.80;42.80
6443;DHT22;3254;47.372;8.512;2023-05-06T02:07:17;13.80;41.60
6443;DHT22;3254;47.372;8.512;2023-05-06T02:09:42;13.90;40.50
6443;DHT22;3254;47.372;8.512;2023-05-06T02:12:08;13.90;39.50
6443;DHT22;3254;47.372;8.512;2023-05-06T02:14:34;13.90;39.00
6443;DHT22;3254;47.372;8.512;2023-05-06T02:17:03;14.00;37.60
6443;DHT22;3254;47.372;8.512;2023-05-06T02:19:29;14.00;35.60
6443;DHT22;3254;47.372;8.512;2023-05-06T02:21:55;14.00;36.10
6443;DHT22;3254;47.372;8.512;2023-05-06T02:24:22;14.00;36.10
6443;DHT22;3254;47.372;8.512;2023-05-06T02:26:47;14.00;36.00
6443;DHT22;3254;47.372;8.512;2023-05-06T02:29:13;14.10;34.90
6443;DHT22;3254;47.372;8.512;2023-05-06T02:31:38;14.10;34.90
6443;DHT22;3254;47.372;8.512;2023-05-06T02:34:04;14.10;34.70
6443;DHT22;3254;47.372;8.512;2023-05-06T02:36:30;14.10;34.40
6443;DHT22;3254;47.372;8.512;2023-05-06T02:38:55;14.10;34.60
6443;DHT22;3254;47.372;8.512;2023-05-06T02:41:21;14.10;35.00
6443;DHT22;3254;47.372;8.512;2023-05-06T02:43:46;14.20;34.80
6443;DHT22;3254;47.372;8.512;2023-05-06T02:46:12;14.20;34.90
6443;DHT22;3254;47.372;8.512;2023-05-06T02:48:37;14.20;34.50
6443;DHT22;3254;47.372;8.512;2023-05-06T02:51:04;14.20;34.30
6443;DHT22;3254;47.372;8.512;2023-05-06T02:53:29;14.20;34.50
6443;DHT22;3254;47.372;8.512;2023-05-06T02:55:55;14.20;35.40
6443;DHT22;3254;47.372;8.512;2023-05-06T02:58:20;14.20;35.70
6443;DHT22;3254;47.372;8.512;2023-05-06T03:00:46;14.20;34.90
6443;DHT22;3254;47.372;8.512;2023-05-06T03:03:11;14.20;35.90
6443;DHT22;3254;47.372;8.512;2023-05-06T03:05:37;14.20;36.10
6443;DHT22;3254;47.372;8.512;2023-05-06T03:08:03;14.10;37.20
6443;DHT22;3254;47.372;8.512;2023-05-06T03:10:28;14.10;37.40
6443;DHT22;3254;47.372;8.512;2023-05-06T03:12:54;14.10;37.60
6443;DHT22;3254;47.372;8.512;2023-05-06T03:15:19;14.10;37.50
6443;DHT22;3254;47.372;8.512;2023-05-06T03:17:46;14.20;37.30
6443;DHT22;3254;47.372;8.512;2023-05-06T03:20:12;14.10;36.50
6443;DHT22;3254;47.372;8.512;2023-05-06T03:22:37;14.20;35.90
6443;DHT22;3254;47.372;8.512;2023-05-06T03:25:03;14.20;35.90
6443;DHT22;3254;47.372;8.512;2023-05-06T03:27:29;14.20;32.60
6443;DHT22;3254;47.372;8.512;2023-05-06T03:29:55;14.20;32.50
6443;DHT22;3254;47.372;8.512;2023-05-06T03:32:20;14.10;32.60
6443;DHT22;3254;47.372;8.512;2023-05-06T03:34:46;14.10;31.90
6443;DHT22;3254;47.372;8.512;2023-05-06T03:37:11;14.00;31.90
6443;DHT22;3254;47.372;8.512;2023-05-06T03:39:37;14.00;32.40
6443;DHT22;3254;47.372;8.512;2023-05-06T03:42:02;14.00;32.90
6443;DHT22;3254;47.372;8.512;2023-05-06T03:44:28;14.00;34.90
6443;DHT22;3254;47.372;8.512;2023-05-06T03:46:54;14.00;37.10
6443;DHT22;3254;47.372;8.512;2023-05-06T03:49:19;14.00;43.20
6443;DHT22;3254;47.372;8.512;2023-05-06T03:51:45;14.00;46.00
6443;DHT22;3254;47.372;8.512;2023-05-06T03:54:11;14.00;46.00
6443;DHT22;3254;47.372;8.512;2023-05-06T03:56:36;13.90;50.50
6443;DHT22;3254;47.372;8.512;2023-05-06T03:59:02;13.80;54.10
6443;DHT22;3254;47.372;8.512;2023-05-06T04:01:28;13.70;58.30
6443;DHT22;3254;47.372;8.512;2023-05-06T04:03:53;13.70;60.70
6443;DHT22;3254;47.372;8.512;2023-05-06T04:06:19;13.70;61.30
6443;DHT22;3254;47.372;8.512;2023-05-06T04:08:45;13.70;62.80
6443;DHT22;3254;47.372;8.512;2023-05-06T04:11:10;13.70;64.40
6443;DHT22;3254;47.372;8.512;2023-05-06T04:13:36;13.70;64.00
6443;DHT22;3254;47.372;8.512;2023-05-06T04:16:01;13.70;65.20
6443;DHT22;3254;47.372;8.512;2023-05-06T04:18:28;13.80;64.60
6443;DHT22;3254;47.372;8.512;2023-05-06T04:20:53;13.80;64.40
6443;DHT22;3254;47.372;8.512;2023-05-06T04:23:19;13.80;64.80
6443;DHT22;3254;47.372;8.512;2023-05-06T04:25:45;13.80;65.00
6443;DHT22;3254;47.372;8.512;2023-05-06T04:28:14;13.80;64.80
6443;DHT22;3254;47.372;8.512;2023-05-06T04:30:44;13.90;62.50
6443;DHT22;3254;47.372;8.512;2023-05-06T04:33:10;13.90;61.40
6443;DHT22;3254;47.372;8.512;2023-05-06T04:35:35;14.00;59.80
6443;DHT22;3254;47.372;8.512;2023-05-06T04:38:01;14.00;57.20
6443;DHT22;3254;47.372;8.512;2023-05-06T04:40:28;14.00;57.00
6443;DHT22;3254;47.372;8.512;2023-05-06T04:42:54;14.00;55.30
6443;DHT22;3254;47.372;8.512;2023-05-06T04:45:20;14.00;53.60
6443;DHT22;3254;47.372;8.512;2023-05-06T04:47:46;14.00;53.70
6443;DHT22;3254;47.372;8.512;2023-05-06T04:50:12;14.00;54.40
6443;DHT22;3254;47.372;8.512;2023-05-06T04:52:38;14.10;54.00
6443;DHT22;3254;47.372;8.512;2023-05-06T04:55:04;14.00;53.20
6443;DHT22;3254;47.372;8.512;2023-05-06T04:57:32;14.00;53.40
6443;DHT22;3254;47.372;8.512;2023-05-06T04:59:58;13.90;54.10
6443;DHT22;3254;47.372;8.512;2023-05-06T05:02:24;13.80;55.50
6443;DHT22;3254;47.372;8.512;2023-05-06T05:04:49;13.80;57.30
6443;DHT22;3254;47.372;8.512;2023-05-06T05:07:15;13.80;58.30
6443;DHT22;3254;47.372;8.512;2023-05-06T05:09:40;13.80;58.40
6443;DHT22;3254;47.372;8.512;2023-05-06T05:12:06;13.90;58.70
6443;DHT22;3254;47.372;8.512;2023-05-06T05:14:32;14.00;56.50
6443;DHT22;3254;47.372;8.512;2023-05-06T05:16:57;14.20;53.10
6443;DHT22;3254;47.372;8.512;2023-05-06T05:19:23;14.40;47.30
6443;DHT22;3254;47.372;8.512;2023-05-06T05:21:48;14.60;42.20
6443;DHT22;3254;47.372;8.512;2023-05-06T05:24:14;14.80;37.40
6443;DHT22;3254;47.372;8.512;2023-05-06T05:26:40;14.80;33.60
6443;DHT22;3254;47.372;8.512;2023-05-06T05:29:06;15.00;30.70
6443;DHT22;3254;47.372;8.512;2023-05-06T05:31:31;15.00;28.20
6443;DHT22;3254;47.372;8.512;2023-05-06T05:33:57;14.90;28.80
6443;DHT22;3254;47.372;8.512;2023-05-06T05:36:23;14.60;31.00
6443;DHT22;3254;47.372;8.512;2023-05-06T05:38:49;14.50;33.10
6443;DHT22;3254;47.372;8.512;2023-05-06T05:41:15;14.50;35.30
6443;DHT22;3254;47.372;8.512;2023-05-06T05:43:40;14.40;35.50
6443;DHT22;3254;47.372;8.512;2023-05-06T05:46:06;14.60;35.70
6443;DHT22;3254;47.372;8.512;2023-05-06T05:48:32;14.70;29.60
6443;DHT22;3254;47.372;8.512;2023-05-06T05:50:59;14.80;28.60
6443;DHT22;3254;47.372;8.512;2023-05-06T05:53:25;15.00;25.10
6443;DHT22;3254;47.372;8.512;2023-05-06T05:55:51;15.30;23.20
6443;DHT22;3254;47.372;8.512;2023-05-06T05:58:16;15.50;20.80
6443;DHT22;3254;47.372;8.512;2023-05-06T06:00:42;15.50;17.80
6443;DHT22;3254;47.372;8.512;2023-05-06T06:03:07;15.50;15.20
6443;DHT22;3254;47.372;8.512;2023-05-06T06:05:33;15.40;14.30
6443;DHT22;3254;47.372;8.512;2023-05-06T06:07:58;15.30;14.20
6443;DHT22;3254;47.372;8.512;2023-05-06T06:10:24;15.20;13.50
6443;DHT22;3254;47.372;8.512;2023-05-06T06:12:50;15.30;12.40
6443;DHT22;3254;47.372;8.512;2023-05-06T06:15:16;15.30;11.10
6443;DHT22;3254;47.372;8.512;2023-05-06T06:17:41;15.50;9.40
6443;DHT22;3254;47.372;8.512;2023-05-06T06:20:08;15.60;7.90
6443;DHT22;3254;47.372;8.512;2023-05-06T06:22:34;15.80;6.40
6443;DHT22;3254;47.372;8.512;2023-05-06T06:24:59;15.90;4.20
6443;DHT22;3254;47.372;8.512;2023-05-06T06:27:25;16.00;2.20
6443;DHT22;3254;47.372;8.512;2023-05-06T06:29:51;16.10;1.20
6443;DHT22;3254;47.372;8.512;2023-05-06T06:32:16;16.10;1.00
6443;DHT22;3254;47.372;8.512;2023-05-06T06:34:42;16.20;1.00
6443;DHT22;3254;47.372;8.512;2023-05-06T06:37:11;16.40;1.00
6443;DHT22;3254;47.372;8.512;2023-05-06T06:39:36;16.40;1.00
6443;DHT22;3254;47.372;8.512;2023-05-06T06:42:02;16.30;1.00
6443;DHT22;3254;47.372;8.512;2023-05-06T06:44:29;16.40;1.00
6443;DHT22;3254;47.372;8.512;2023-05-06T06:46:54;16.70;1.00
6443;DHT22;3254;47.372;8.512;2023-05-06T06:49:20;17.10;1.00
6443;DHT22;3254;47.372;8.512;2023-05-06T06:51:45;17.30;1.00
6443;DHT22;3254;47.372;8.512;2023-05-06T06:54:11;17.40;1.00
6443;DHT22;3254;47.372;8.512;2023-05-06T06:56:36;17.50;1.00
6443;DHT22;3254;47.372;8.512;2023-05-06T06:59:02;17.70;1.00
6443;DHT22;3254;47.372;8.512;2023-05-06T07:01:28;17.70;1.00
6443;DHT22;3254;47.372;8.512;2023-05-06T07:03:53;17.70;1.00
6443;DHT22;3254;47.372;8.512;2023-05-06T07:06:19;17.50;1.00
6443;DHT22;3254;47.372;8.512;2023-05-06T07:08:44;17.30;1.00
6443;DHT22;3254;47.372;8.512;2023-05-06T07:11:10;17.30;1.00
6443;DHT22;3254;47.372;8.512;2023-05-06T07:13:36;17.60;1.00
6443;DHT22;3254;47.372;8.512;2023-05-06T07:16:02;17.80;1.00
6443;DHT22;3254;47.372;8.512;2023-05-06T07:18:27;18.00;1.00
6443;DHT22;3254;47.372;8.512;2023-05-06T07:20:53;18.40;1.00
6443;DHT22;3254;47.372;8.512;2023-05-06T07:23:18;19.00;1.00
6443;DHT22;3254;47.372;8.512;2023-05-06T07:25:44;20.10;1.00
6443;DHT22;3254;47.372;8.512;2023-05-06T07:28:09;20.70;1.00
6443;DHT22;3254;47.372;8.512;2023-05-06T07:30:37;20.80;1.00
6443;DHT22;3254;47.372;8.512;2023-05-06T07:33:03;21.30;1.00
6443;DHT22;3254;47.372;8.512;2023-05-06T07:35:28;21.50;1.00
6443;DHT22;3254;47.372;8.512;2023-05-06T07:37:54;22.00;1.00
6443;DHT22;3254;47.372;8.512;2023-05-06T07:40:19;22.30;1.00
6443;DHT22;3254;47.372;8.512;2023-05-06T07:42:45;22.50;1.00
6443;DHT22;3254;47.372;8.512;2023-05-06T07:45:10;22.90;1.00
6443;DHT22;3254;47.372;8.512;2023-05-06T07:47:36;22.60;1.00
6443;DHT22;3254;47.372;8.512;2023-05-06T07:50:02;22.60;1.00
6443;DHT22;3254;47.372;8.512;2023-05-06T07:52:29;23.00;1.00
6443;DHT22;3254;47.372;8.512;2023-05-06T07:54:55;23.40;1.00
6443;DHT22;3254;47.372;8.512;2023-05-06T07:57:20;23.00;1.00
6443;DHT22;3254;47.372;8.512;2023-05-06T07:59:47;23.80;1.00
6443;DHT22;3254;47.372;8.512;2023-05-06T08:02:13;24.00;1.00
6443;DHT22;3254;47.372;8.512;2023-05-06T08:04:39;24.00;1.00
6443;DHT22;3254;47.372;8.512;2023-05-06T08:07:05;24.30;1.00
6443;DHT22;3254;47.372;8.512;2023-05-06T08:09:30;24.40;1.00
6443;DHT22;3254;47.372;8.512;2023-05-06T08:11:56;24.60;1.00
6443;DHT22;3254;47.372;8.512;2023-05-06T08:14:23;24.90;1.00
6443;DHT22;3254;47.372;8.512;2023-05-06T08:16:50;24.90;1.00
6443;DHT22;3254;47.372;8.512;2023-05-06T08:19:16;25.10;1.00
6443;DHT22;3254;47.372;8.512;2023-05-06T08:21:42;25.70;1.00
6443;DHT22;3254;47.372;8.512;2023-05-06T08:24:07;25.60;1.00
6443;DHT22;3254;47.372;8.512;2023-05-06T08:26:35;25.10;1.00
6443;DHT22;3254;47.372;8.512;2023-05-06T08:29:01;24.50;1.00
6443;DHT22;3254;47.372;8.512;2023-05-06T08:31:27;24.30;1.00
6443;DHT22;3254;47.372;8.512;2023-05-06T08:33:53;24.50;1.00
6443;DHT22;3254;47.372;8.512;2023-05-06T08:36:19;25.00;1.00
6443;DHT22;3254;47.372;8.512;2023-05-06T08:38:44;25.30;1.00
6443;DHT22;3254;47.372;8.512;2023-05-06T08:41:17;25.30;1.00
6443;DHT22;3254;47.372;8.512;2023-05-06T08:43:45;25.90;1.00
6443;DHT22;3254;47.372;8.512;2023-05-06T08:46:11;26.50;1.00
6443;DHT22;3254;47.372;8.512;2023-05-06T08:48:37;27.10;1.00
6443;DHT22;3254;47.372;8.512;2023-05-06T08:51:03;27.60;1.00
6443;DHT22;3254;47.372;8.512;2023-05-06T08:53:29;28.20;1.00
6443;DHT22;3254;47.372;8.512;2023-05-06T08:56:02;27.90;1.00
6443;DHT22;3254;47.372;8.512;2023-05-06T08:58:35;27.60;1.00
6443;DHT22;3254;47.372;8.512;2023-05-06T09:01:03;26.50;1.00
6443;DHT22;3254;47.372;8.512;2023-05-06T09:03:29;26.50;1.00
6443;DHT22;3254;47.372;8.512;2023-05-06T09:05:57;27.40;1.00
6443;DHT22;3254;47.372;8.512;2023-05-06T09:08:23;26.80;1.00
6443;DHT22;3254;47.372;8.512;2023-05-06T09:10:49;26.60;1.00
6443;DHT22;3254;47.372;8.512;2023-05-06T09:13:15;27.00;1.00
6443;DHT22;3254;47.372;8.512;2023-05-06T09:15:42;27.40;1.00
6443;DHT22;3254;47.372;8.512;2023-05-06T09:18:09;27.90;1.00
6443;DHT22;3254;47.372;8.512;2023-05-06T09:20:35;27.70;1.00
6443;DHT22;3254;47.372;8.512;2023-05-06T09:23:04;28.50;1.00
6443;DHT22;3254;47.372;8.512;2023-05-06T09:25:30;28.50;1.00
6443;DHT22;3254;47.372;8.512;2023-05-06T09:28:03;29.00;1.00
6443;DHT22;3254;47.372;8.512;2023-05-06T09:30:29;28.30;1.00
6443;DHT22;3254;47.372;8.512;2023-05-06T09:32:55;27.90;1.00
6443;DHT22;3254;47.372;8.512;2023-05-06T09:35:20;28.20;1.00
6443;DHT22;3254;47.372;8.512;2023-05-06T09:37:50;28.50;1.00
6443;DHT22;3254;47.372;8.512;2023-05-06T09:40:16;28.90;1.00
6443;DHT22;3254;47.372;8.512;2023-05-06T09:42:42;29.80;1.00
6443;DHT22;3254;47.372;8.512;2023-05-06T09:45:08;29.80;1.00
6443;DHT22;3254;47.372;8.512;2023-05-06T09:47:34;30.40;1.00
6443;DHT22;3254;47.372;8.512;2023-05-06T09:50:01;31.00;1.00
6443;DHT22;3254;47.372;8.512;2023-05-06T09:52:27;31.00;1.00
6443;DHT22;3254;47.372;8.512;2023-05-06T09:54:54;30.90;1.00
6443;DHT22;3254;47.372;8.512;2023-05-06T09:57:20;31.40;1.00
6443;DHT22;3254;47.372;8.512;2023-05-06T09:59:47;32.00;1.00
6443;DHT22;3254;47.372;8.512;2023-05-06T10:02:13;32.30;1.00
6443;DHT22;3254;47.372;8.512;2023-05-06T10:04:42;31.80;1.00
6443;DHT22;3254;47.372;8.512;2023-05-06T10:07:10;32.70;1.00
6443;DHT22;3254;47.372;8.512;2023-05-06T10:09:38;33.20;1.00
6443;DHT22;3254;47.372;8.512;2023-05-06T10:12:06;32.80;1.00
6443;DHT22;3254;47.372;8.512;2023-05-06T10:14:33;31.90;1.00
6443;DHT22;3254;47.372;8.512;2023-05-06T10:16:59;32.00;1.00
6443;DHT22;3254;47.372;8.512;2023-05-06T10:19:25;31.50;1.00
6443;DHT22;3254;47.372;8.512;2023-05-06T10:22:14;31.40;1.00
6443;DHT22;3254;47.372;8.512;2023-05-06T10:24:48;30.60;1.00
6443;DHT22;3254;47.372;8.512;2023-05-06T10:27:17;31.00;1.00
6443;DHT22;3254;47.372;8.512;2023-05-06T10:29:47;31.00;1.00
6443;DHT22;3254;47.372;8.512;2023-05-06T10:32:13;31.90;1.00
6443;DHT22;3254;47.372;8.512;2023-05-06T10:34:45;32.20;1.00
6443;DHT22;3254;47.372;8.512;2023-05-06T10:37:13;32.60;1.00
6443;DHT22;3254;47.372;8.512;2023-05-06T10:39:40;33.50;1.00
6443;DHT22;3254;47.372;8.512;2023-05-06T10:42:09;33.10;1.00
6443;DHT22;3254;47.372;8.512;2023-05-06T10:44:57;31.90;1.00
6443;DHT22;3254;47.372;8.512;2023-05-06T10:47:23;31.10;1.00
6443;DHT22;3254;47.372;8.512;2023-05-06T10:50:17;30.00;1.00
6443;DHT22;3254;47.372;8.512;2023-05-06T10:52:43;28.80;1.00
6443;DHT22;3254;47.372;8.512;2023-05-06T10:55:35;28.30;1.00
6443;DHT22;3254;47.372;8.512;2023-05-06T10:58:14;28.30;1.00
6443;DHT22;3254;47.372;8.512;2023-05-06T11:00:40;27.60;1.00
6443;DHT22;3254;47.372;8.512;2023-05-06T11:03:09;27.30;1.00
6443;DHT22;3254;47.372;8.512;2023-05-06T11:05:50;27.80;1.00
6443;DHT22;3254;47.372;8.512;2023-05-06T11:08:24;29.20;1.00
6443;DHT22;3254;47.372;8.512;2023-05-06T11:10:50;31.00;1.00
6443;DHT22;3254;47.372;8.512;2023-05-06T11:13:24;32.20;1.00
6443;DHT22;3254;47.372;8.512;2023-05-06T11:15:56;33.00;1.00
6443;DHT22;3254;47.372;8.512;2023-05-06T11:26:07;33.20;1.00
6443;DHT22;3254;47.372;8.512;2023-05-06T11:28:33;33.50;1.00
6443;DHT22;3254;47.372;8.512;2023-05-06T11:30:59;33.70;1.00
6443;DHT22;3254;47.372;8.512;2023-05-06T11:33:27;33.90;1.00
6443;DHT22;3254;47.372;8.512;2023-05-06T11:35:53;34.20;1.00
6443;DHT22;3254;47.372;8.512;2023-05-06T11:38:19;33.80;1.00
6443;DHT22;3254;47.372;8.512;2023-05-06T11:40:44;33.30;1.00
6443;DHT22;3254;47.372;8.512;2023-05-06T11:43:14;33.10;1.00
6443;DHT22;3254;47.372;8.512;2023-05-06T11:45:44;32.90;1.00
6443;DHT22;3254;47.372;8.512;2023-05-06T11:48:11;33.20;1.00
6443;DHT22;3254;47.372;8.512;2023-05-06T11:50:37;33.00;1.00
6443;DHT22;3254;47.372;8.512;2023-05-06T11:53:02;32.80;1.00
6443;DHT22;3254;47.372;8.512;2023-05-06T11:55:28;32.20;1.00
6443;DHT22;3254;47.372;8.512;2023-05-06T11:57:54;31.80;1.00
6443;DHT22;3254;47.372;8.512;2023-05-06T12:00:19;32.80;1.00
6443;DHT22;3254;47.372;8.512;2023-05-06T12:02:45;34.20;1.00
6443;DHT22;3254;47.372;8.512;2023-05-06T12:05:10;35.40;1.00
6443;DHT22;3254;47.372;8.512;2023-05-06T12:07:41;34.90;1.00
6443;DHT22;3254;47.372;8.512;2023-05-06T12:10:07;34.50;1.00
6443;DHT22;3254;47.372;8.512;2023-05-06T12:12:33;33.30;1.00
6443;DHT22;3254;47.372;8.512;2023-05-06T12:14:58;32.50;1.00
6443;DHT22;3254;47.372;8.512;2023-05-06T12:17:24;31.30;1.00
6443;DHT22;3254;47.372;8.512;2023-05-06T12:19:51;29.90;1.00
6443;DHT22;3254;47.372;8.512;2023-05-06T12:22:20;29.50;1.00
6443;DHT22;3254;47.372;8.512;2023-05-06T12:24:47;29.10;1.00
6443;DHT22;3254;47.372;8.512;2023-05-06T12:27:13;29.30;1.00
6443;DHT22;3254;47.372;8.512;2023-05-06T12:29:38;30.50;1.00
6443;DHT22;3254;47.372;8.512;2023-05-06T12:32:09;31.90;1.00
6443;DHT22;3254;47.372;8.512;2023-05-06T12:34:39;31.80;1.00
6443;DHT22;3254;47.372;8.512;2023-05-06T12:37:06;31.70;1.00
6443;DHT22;3254;47.372;8.512;2023-05-06T12:39:39;31.80;1.00
6443;DHT22;3254;47.372;8.512;2023-05-06T12:42:05;32.70;1.00
6443;DHT22;3254;47.372;8.512;2023-05-06T12:44:35;33.10;1.00
6443;DHT22;3254;47.372;8.512;2023-05-06T12:47:08;33.30;1.00
6443;DHT22;3254;47.372;8.512;2023-05-06T12:49:53;34.40;1.00
6443;DHT22;3254;47.372;8.512;2023-05-06T12:52:21;35.20;1.00
6443;DHT22;3254;47.372;8.512;2023-05-06T12:54:47;34.50;1.00
6443;DHT22;3254;47.372;8.512;2023-05-06T12:57:14;35.50;1.00
6443;DHT22;3254;47.372;8.512;2023-05-06T12:59:40;35.20;1.00
6443;DHT22;3254;47.372;8.512;2023-05-06T13:02:06;35.60;1.00
6443;DHT22;3254;47.372;8.512;2023-05-06T13:04:31;36.50;1.00
6443;DHT22;3254;47.372;8.512;2023-05-06T13:06:57;37.20;1.00
6443;DHT22;3254;47.372;8.512;2023-05-06T13:09:23;36.00;1.00
6443;DHT22;3254;47.372;8.512;2023-05-06T13:11:49;33.40;1.00
6443;DHT22;3254;47.372;8.512;2023-05-06T13:14:14;32.70;1.00
6443;DHT22;3254;47.372;8.512;2023-05-06T13:16:41;31.90;1.00
6443;DHT22;3254;47.372;8.512;2023-05-06T13:19:10;31.90;1.00
6443;DHT22;3254;47.372;8.512;2023-05-06T13:21:37;32.20;1.00
6443;DHT22;3254;47.372;8.512;2023-05-06T13:24:03;31.70;1.00
6443;DHT22;3254;47.372;8.512;2023-05-06T13:26:30;32.00;1.00
6443;DHT22;3254;47.372;8.512;2023-05-06T13:28:56;32.30;1.00
6443;DHT22;3254;47.372;8.512;2023-05-06T13:31:21;32.70;1.00
6443;DHT22;3254;47.372;8.512;2023-05-06T13:33:47;33.30;1.00
6443;DHT22;3254;47.372;8.512;2023-05-06T13:36:13;33.10;1.00
6443;DHT22;3254;47.372;8.512;2023-05-06T13:38:39;33.00;1.00
6443;DHT22;3254;47.372;8.512;2023-05-06T13:41:06;33.70;1.00
6443;DHT22;3254;47.372;8.512;2023-05-06T13:43:33;34.30;1.00
6443;DHT22;3254;47.372;8.512;2023-05-06T13:45:58;34.20;1.00
6443;DHT22;3254;47.372;8.512;2023-05-06T13:48:24;33.20;1.00
6443;DHT22;3254;47.372;8.512;2023-05-06T13:50:49;32.70;1.00
6443;DHT22;3254;47.372;8.512;2023-05-06T13:53:15;32.30;1.00
6443;DHT22;3254;47.372;8.512;2023-05-06T13:55:41;31.30;1.00
6443;DHT22;3254;47.372;8.512;2023-05-06T13:58:07;30.30;1.00
6443;DHT22;3254;47.372;8.512;2023-05-06T14:00:34;29.90;1.00
6443;DHT22;3254;47.372;8.512;2023-05-06T14:03:01;30.00;1.00
6443;DHT22;3254;47.372;8.512;2023-05-06T14:05:28;30.20;1.00
6443;DHT22;3254;47.372;8.512;2023-05-06T14:07:55;30.50;1.00
6443;DHT22;3254;47.372;8.512;2023-05-06T14:10:22;30.70;1.00
6443;DHT22;3254;47.372;8.512;2023-05-06T14:12:51;30.50;1.00
6443;DHT22;3254;47.372;8.512;2023-05-06T14:15:16;30.00;1.00
6443;DHT22;3254;47.372;8.512;2023-05-06T14:17:45;30.00;1.00
6443;DHT22;3254;47.372;8.512;2023-05-06T14:20:12;29.50;1.00
6443;DHT22;3254;47.372;8.512;2023-05-06T14:22:42;29.30;1.00
6443;DHT22;3254;47.372;8.512;2023-05-06T14:25:08;29.20;1.00
6443;DHT22;3254;47.372;8.512;2023-05-06T14:27:34;29.00;1.00
6443;DHT22;3254;47.372;8.512;2023-05-06T14:30:01;29.10;1.00
6443;DHT22;3254;47.372;8.512;2023-05-06T14:32:30;29.50;1.00
6443;DHT22;3254;47.372;8.512;2023-05-06T14:34:55;30.30;1.00
6443;DHT22;3254;47.372;8.512;2023-05-06T14:37:21;30.80;1.00
6443;DHT22;3254;47.372;8.512;2023-05-06T14:39:46;31.60;1.00
6443;DHT22;3254;47.372;8.512;2023-05-06T14:42:12;31.80;1.00
6443;DHT22;3254;47.372;8.512;2023-05-06T14:44:38;32.30;1.00
6443;DHT22;3254;47.372;8.512;2023-05-06T14:47:03;32.40;1.00
6443;DHT22;3254;47.372;8.512;2023-05-06T14:49:29;32.90;1.00
6443;DHT22;3254;47.372;8.512;2023-05-06T14:51:55;33.20;1.00
6443;DHT22;3254;47.372;8.512;2023-05-06T14:54:21;33.30;1.00
6443;DHT22;3254;47.372;8.512;2023-05-06T14:56:51;32.90;1.00
6443;DHT22;3254;47.372;8.512;2023-05-06T14:59:17;32.50;1.00
6443;DHT22;3254;47.372;8.512;2023-05-06T15:01:43;33.00;1.00
6443;DHT22;3254;47.372;8.512;2023-05-06T15:04:09;33.90;1.00
6443;DHT22;3254;47.372;8.512;2023-05-06T15:06:35;34.20;1.00
6443;DHT22;3254;47.372;8.512;2023-05-06T15:09:02;33.80;1.00
6443;DHT22;3254;47.372;8.512;2023-05-06T15:11:29;33.70;1.00
6443;DHT22;3254;47.372;8.512;2023-05-06T15:13:55;33.90;1.00
6443;DHT22;3254;47.372;8.512;2023-05-06T15:16:20;34.80;1.00
6443;DHT22;3254;47.372;8.512;2023-05-06T15:18:47;35.00;1.00
6443;DHT22;3254;47.372;8.512;2023-05-06T15:21:13;34.30;1.00
6443;DHT22;3254;47.372;8.512;2023-05-06T15:23:40;34.70;1.00
6443;DHT22;3254;47.372;8.512;2023-05-06T15:26:05;34.90;1.00
6443;DHT22;3254;47.372;8.512;2023-05-06T15:28:31;35.10;1.00
6443;DHT22;3254;47.372;8.512;2023-05-06T15:30:57;33.80;1.00
6443;DHT22;3254;47.372;8.512;2023-05-06T15:33:22;33.40;1.00
6443;DHT22;3254;47.372;8.512;2023-05-06T15:35:48;34.00;1.00
6443;DHT22;3254;47.372;8.512;2023-05-06T15:38:13;34.10;1.00
6443;DHT22;3254;47.372;8.512;2023-05-06T15:40:39;34.40;1.00
6443;DHT22;3254;47.372;8.512;2023-05-06T15:43:05;34.50;1.00
6443;DHT22;3254;47.372;8.512;2023-05-06T15:45:31;34.40;1.00
6443;DHT22;3254;47.372;8.512;2023-05-06T15:47:57;35.00;1.00
6443;DHT22;3254;47.372;8.512;2023-05-06T15:50:23;34.70;1.00
6443;DHT22;3254;47.372;8.512;2023-05-06T15:52:48;34.50;1.00
6443;DHT22;3254;47.372;8.512;2023-05-06T15:55:14;34.20;1.00
6443;DHT22;3254;47.372;8.512;2023-05-06T15:57:39;33.50;1.00
6443;DHT22;3254;47.372;8.512;2023-05-06T16:00:07;32.90;1.00
6443;DHT22;3254;47.372;8.512;2023-05-06T16:02:33;32.70;1.00
6443;DHT22;3254;47.372;8.512;2023-05-06T16:04:59;33.00;1.00
6443;DHT22;3254;47.372;8.512;2023-05-06T16:07:25;33.50;1.00
6443;DHT22;3254;47.372;8.512;2023-05-06T16:09:52;33.10;1.00
6443;DHT22;3254;47.372;8.512;2023-05-06T16:12:20;32.80;1.00
6443;DHT22;3254;47.372;8.512;2023-05-06T16:14:46;32.40;1.00
6443;DHT22;3254;47.372;8.512;2023-05-06T16:17:13;32.60;1.00
6443;DHT22;3254;47.372;8.512;2023-05-06T16:19:41;32.50;1.00